Time;durP1;ratioP1;P1;durP2;ratioP2;P2;SDS_P1;SDS_P2;PMS_P1;PMS_P2;Temp;Humidity;BMP_temperature;BMP_pressure;BME280_temperature;BME280_humidity;BME280_pressure;Samples;Min_cycle;Max_cycle;Signal;HPM_P1;HPM_P2
2023/02/12 00:01:12;;;;;;;14.53;13.83;;;21.70;54.80;;;;;;5071567;28;20514;-58
2023/02/12 00:03:40;;;;;;;15.37;14.67;;;21.70;54.90;;;;;;5071339;28;20534;-59
2023/02/12 00:06:08;;;;;;;16.00;15.20;;;21.70;54.90;;;;;;5071409;28;20470;-55
2023/02/12 00:08:35;;;;;;;15.33;14.53;;;21.70;54.90;;;;;;5072010;28;20443;-57
2023/02/12 00:11:08;;;;;;;14.87;14.17;;;21.70;54.90;;;;;;5071502;28;20439;-59
2023/02/12 00:13:35;;;;;;;14.70;14.00;;;21.70;55.00;;;;;;5071688;28;20453;-58
2023/02/12 00:16:05;;;;;;;15.93;15.13;;;21.70;55.00;;;;;;5071621;28;20459;-58
2023/02/12 00:18:33;;;;;;;15.20;14.53;;;21.70;55.00;;;;;;5071690;28;20435;-59
2023/02/12 00:21:00;;;;;;;14.90;14.10;;;21.70;55.00;;;;;;5071304;28;20832;-57
2023/02/12 00:23:27;;;;;;;15.80;15.00;;;21.60;55.00;;;;;;5071619;28;20432;-54
2023/02/12 00:25:54;;;;;;;15.17;14.37;;;21.60;55.00;;;;;;5071435;28;20477;-60
2023/02/12 00:28:21;;;;;;;15.30;14.60;;;21.60;55.10;;;;;;5071570;28;20451;-55
2023/02/12 00:30:49;;;;;;;15.10;14.40;;;21.60;55.20;;;;;;5071230;28;20463;-56
2023/02/12 00:33:16;;;;;;;15.57;14.80;;;21.60;55.20;;;;;;5071485;28;20443;-57
2023/02/12 00:35:44;;;;;;;15.27;14.47;;;21.60;55.20;;;;;;5071652;28;20470;-58
2023/02/12 00:38:11;;;;;;;15.87;15.07;;;21.60;55.20;;;;;;5071447;28;20443;-58
2023/02/12 00:40:38;;;;;;;16.70;16.00;;;21.60;55.20;;;;;;5071216;28;20566;-57
2023/02/12 00:43:05;;;;;;;15.27;14.57;;;21.60;55.20;;;;;;5071372;28;20534;-59
2023/02/12 00:45:32;;;;;;;15.80;15.00;;;21.50;55.20;;;;;;5071242;28;20467;-57
2023/02/12 00:47:59;;;;;;;15.10;14.50;;;21.50;55.20;;;;;;5071220;28;20869;-57
2023/02/12 00:50:26;;;;;;;14.03;13.50;;;21.50;55.20;;;;;;5071210;28;20445;-59
2023/02/12 00:52:54;;;;;;;15.10;14.40;;;21.50;55.20;;;;;;5071466;28;20998;-57
2023/02/12 00:55:21;;;;;;;14.67;13.93;;;21.50;55.20;;;;;;5071126;28;20494;-60
2023/02/12 00:57:48;;;;;;;16.33;15.53;;;21.50;55.30;;;;;;5071290;28;20443;-58
2023/02/12 01:00:16;;;;;;;14.77;14.17;;;21.50;55.30;;;;;;5070963;28;20566;-58
2023/02/12 01:02:42;;;;;;;16.40;15.60;;;21.50;55.30;;;;;;5071487;28;20440;-59
2023/02/12 01:05:10;;;;;;;15.50;14.70;;;21.50;55.30;;;;;;5071171;28;21039;-59
2023/02/12 01:07:37;;;;;;;14.70;14.00;;;21.50;55.30;;;;;;5070957;28;20443;-57
2023/02/12 01:10:07;;;;;;;15.87;15.17;;;21.50;55.30;;;;;;5070994;28;20443;-59
2023/02/12 01:12:34;;;;;;;15.53;14.63;;;21.50;55.30;;;;;;5071153;28;20443;-57
2023/02/12 01:15:01;;;;;;;16.20;15.40;;;21.50;55.30;;;;;;5071104;28;20463;-59
2023/02/12 01:17:28;;;;;;;15.20;14.50;;;21.50;55.30;;;;;;5073551;28;20449;-60
2023/02/12 01:19:58;;;;;;;15.57;14.67;;;21.50;55.40;;;;;;5074070;28;20475;-59
2023/02/12 01:22:24;;;;;;;14.93;14.33;;;21.50;55.40;;;;;;5074851;28;20786;-59
2023/02/12 01:24:51;;;;;;;16.43;15.73;;;21.40;55.30;;;;;;5074504;28;20834;-57
2023/02/12 01:27:19;;;;;;;15.73;15.03;;;21.50;55.40;;;;;;5074546;28;20445;-56
2023/02/12 01:29:46;;;;;;;15.00;14.30;;;21.50;55.90;;;;;;5074333;28;20525;-60
2023/02/12 01:32:13;;;;;;;15.53;14.83;;;21.50;55.40;;;;;;5074275;28;20439;-59
2023/02/12 01:34:40;;;;;;;14.33;13.83;;;21.50;55.40;;;;;;5074436;28;20474;-60
2023/02/12 01:37:07;;;;;;;15.20;14.50;;;21.50;55.40;;;;;;5074473;28;20439;-57
2023/02/12 01:39:34;;;;;;;15.13;14.40;;;21.50;55.40;;;;;;5074123;28;20439;-58
2023/02/12 01:42:02;;;;;;;15.27;14.57;;;21.50;55.40;;;;;;5074169;28;20447;-57
2023/02/12 01:44:31;;;;;;;15.30;14.60;;;21.50;55.40;;;;;;5074104;28;21005;-56
2023/02/12 01:47:00;;;;;;;15.77;15.07;;;21.50;55.40;;;;;;5074335;28;20819;-57
2023/02/12 01:49:33;;;;;;;14.43;13.83;;;21.40;55.40;;;;;;5073994;28;20457;-57
2023/02/12 01:52:06;;;;;;;14.70;14.00;;;21.40;55.90;;;;;;5074232;28;20793;-57
2023/02/12 01:54:35;;;;;;;14.30;13.67;;;21.40;55.40;;;;;;5073701;28;20467;-60
2023/02/12 01:57:03;;;;;;;14.50;13.90;;;21.40;55.40;;;;;;5074116;28;20451;-59
2023/02/12 01:59:33;;;;;;;16.33;15.60;;;21.40;55.50;;;;;;5073893;28;20443;-57
2023/02/12 02:02:00;;;;;;;16.23;15.43;;;21.40;55.40;;;;;;5073904;28;20449;-55
2023/02/12 02:04:31;;;;;;;15.30;14.63;;;21.40;55.50;;;;;;5073732;28;20506;-59
2023/02/12 02:07:01;;;;;;;14.40;13.80;;;21.50;55.50;;;;;;5073746;28;20519;-53
2023/02/12 02:09:30;;;;;;;15.53;14.83;;;21.40;55.40;;;;;;5073773;28;20518;-55
2023/02/12 02:14:44;;;;;;;15.10;14.40;;;21.40;55.50;;;;;;5074125;28;20476;-57
2023/02/12 02:17:29;;;;;;;14.83;14.13;;;21.40;55.60;;;;;;5073619;28;20936;-56
2023/02/12 02:20:48;;;;;;;15.47;14.67;;;21.40;55.70;;;;;;5073223;28;20554;-56
2023/02/12 02:23:33;;;;;;;16.00;15.20;;;21.40;55.80;;;;;;5011664;28;20525;-54
2023/02/12 02:26:23;;;;;;;15.00;14.20;;;21.40;55.80;;;;;;5073039;28;20477;-54
2023/02/12 02:29:17;;;;;;;14.40;13.70;;;21.40;55.80;;;;;;5072986;28;20443;-58
2023/02/12 02:31:48;;;;;;;14.27;13.67;;;21.40;55.80;;;;;;5073046;28;20454;-55
2023/02/12 02:34:23;;;;;;;14.00;13.30;;;21.40;55.80;;;;;;5073353;28;20469;-60
2023/02/12 02:36:58;;;;;;;14.27;13.57;;;21.40;55.80;;;;;;5072870;28;20434;-61
2023/02/12 02:39:31;;;;;;;14.73;14.03;;;21.40;55.80;;;;;;5072835;28;20439;-57
2023/02/12 02:42:01;;;;;;;14.70;14.00;;;21.40;55.80;;;;;;5073124;28;20475;-59
2023/02/12 02:44:37;;;;;;;14.87;14.17;;;21.40;55.90;;;;;;5073234;28;20463;-59
2023/02/12 02:47:09;;;;;;;16.50;15.70;;;21.40;55.90;;;;;;5072781;28;20952;-58
2023/02/12 02:49:42;;;;;;;17.23;16.13;;;21.40;55.90;;;;;;5072980;28;20454;-58
2023/02/12 02:52:14;;;;;;;18.50;17.50;;;21.40;55.30;;;;;;5073133;28;20793;-59
2023/02/12 02:54:46;;;;;;;20.67;19.20;;;21.40;55.10;;;;;;5072895;28;20470;-59
2023/02/12 02:57:16;;;;;;;20.77;19.47;;;21.30;54.80;;;;;;5072939;28;20454;-59
2023/02/12 02:59:46;;;;;;;20.10;18.90;;;21.30;54.60;;;;;;5072861;28;20451;-57
2023/02/12 03:02:19;;;;;;;19.10;17.80;;;21.30;54.40;;;;;;5072635;28;20845;-59
2023/02/12 03:04:49;;;;;;;21.10;19.70;;;21.30;54.30;;;;;;5072581;28;20460;-60
2023/02/12 03:07:21;;;;;;;21.23;19.70;;;21.30;54.10;;;;;;5072389;28;20818;-54
2023/02/12 03:09:52;;;;;;;21.77;20.07;;;21.30;54.00;;;;;;5072572;28;20443;-57
2023/02/12 03:12:24;;;;;;;20.40;19.10;;;21.20;53.80;;;;;;5072634;28;20522;-58
2023/02/12 03:14:58;;;;;;;22.20;20.10;;;21.20;53.60;;;;;;5072347;28;20839;-58
2023/02/12 03:17:31;;;;;;;23.37;21.63;;;21.20;53.50;;;;;;5072292;28;20964;-57
2023/02/12 03:20:03;;;;;;;22.37;20.87;;;21.20;53.40;;;;;;5072330;28;20439;-53
2023/02/12 03:22:33;;;;;;;21.27;19.67;;;21.20;53.30;;;;;;5072401;28;20439;-57
2023/02/12 03:25:08;;;;;;;20.63;19.23;;;21.20;53.20;;;;;;5072186;28;20475;-55
2023/02/12 03:27:39;;;;;;;23.77;21.93;;;21.20;53.10;;;;;;5072209;28;20451;-59
2023/02/12 03:30:08;;;;;;;23.97;22.27;;;21.20;53.00;;;;;;5072064;28;20451;-57
2023/02/12 03:32:45;;;;;;;24.43;22.73;;;21.20;53.00;;;;;;5072220;28;20449;-58
2023/02/12 03:35:16;;;;;;;25.00;23.10;;;21.20;52.90;;;;;;5071871;28;21009;-57
2023/02/12 03:37:51;;;;;;;21.87;20.27;;;21.10;52.80;;;;;;5072540;28;20443;-60
2023/02/12 03:40:23;;;;;;;22.07;20.07;;;21.10;52.70;;;;;;5071269;28;20922;-57
2023/02/12 03:42:57;;;;;;;22.90;21.10;;;21.10;52.70;;;;;;5072307;28;20443;-58
2023/02/12 03:45:38;;;;;;;24.17;22.33;;;21.10;52.70;;;;;;5071771;28;21022;-57
2023/02/12 03:48:13;;;;;;;22.53;20.70;;;21.10;52.60;;;;;;5072053;28;20447;-58
2023/02/12 03:50:47;;;;;;;21.73;19.67;;;21.10;52.50;;;;;;5072121;28;20439;-57
2023/02/12 03:53:14;;;;;;;24.57;22.47;;;21.10;52.50;;;;;;5072005;28;20443;-58
2023/02/12 03:55:45;;;;;;;23.87;21.93;;;21.10;52.50;;;;;;5071849;28;20550;-54
2023/02/12 03:58:18;;;;;;;22.03;20.33;;;21.10;52.40;;;;;;5072001;28;20548;-58
2023/02/12 04:00:46;;;;;;;21.00;19.20;;;21.10;52.40;;;;;;5071689;28;20475;-56
2023/02/12 04:03:14;;;;;;;23.60;21.80;;;21.00;52.30;;;;;;5072000;28;20924;-56
2023/02/12 04:05:41;;;;;;;25.80;23.70;;;21.00;52.30;;;;;;5071643;28;20550;-55
2023/02/12 04:08:10;;;;;;;22.60;20.67;;;21.00;52.20;;;;;;5071658;28;20526;-52
2023/02/12 04:10:45;;;;;;;23.77;21.67;;;21.00;52.20;;;;;;5071749;28;21073;-57
2023/02/12 04:13:21;;;;;;;24.20;22.47;;;21.10;52.30;;;;;;5071759;28;20443;-59
2023/02/12 04:16:05;;;;;;;21.87;20.27;;;21.10;52.20;;;;;;5071585;28;20459;-54
2023/02/12 04:18:40;;;;;;;21.73;20.13;;;21.10;52.20;;;;;;5071682;28;20449;-56
2023/02/12 04:21:18;;;;;;;21.77;20.33;;;21.10;52.10;;;;;;5071522;28;20565;-61
2023/02/12 04:23:50;;;;;;;22.70;21.00;;;21.10;52.00;;;;;;5071470;28;20810;-57
2023/02/12 04:26:23;;;;;;;23.03;21.13;;;21.10;51.90;;;;;;5071397;28;20933;-57
2023/02/12 04:29:04;;;;;;;21.97;20.37;;;21.10;51.90;;;;;;5071287;28;20804;-55
2023/02/12 04:31:38;;;;;;;21.53;20.03;;;21.10;51.90;;;;;;5071434;28;20441;-61
2023/02/12 04:34:12;;;;;;;21.47;19.93;;;21.10;51.90;;;;;;5071322;28;21070;-61
2023/02/12 04:36:45;;;;;;;22.00;20.30;;;21.10;51.80;;;;;;5071849;28;20449;-58
2023/02/12 04:39:17;;;;;;;21.10;19.67;;;21.10;51.80;;;;;;5071498;28;20933;-58
2023/02/12 04:41:44;;;;;;;24.50;22.67;;;21.10;51.70;;;;;;5071169;28;21018;-59
2023/02/12 04:44:19;;;;;;;19.90;18.43;;;21.10;51.70;;;;;;5071359;28;20546;-61
2023/02/12 04:46:46;;;;;;;22.70;20.90;;;21.10;51.70;;;;;;5071382;28;20790;-60
2023/02/12 04:49:17;;;;;;;23.27;21.30;;;21.10;51.70;;;;;;5071266;28;20541;-59
2023/02/12 04:51:45;;;;;;;22.17;20.47;;;21.10;51.60;;;;;;5074413;28;20447;-60
2023/02/12 04:54:12;;;;;;;23.43;21.67;;;21.10;51.60;;;;;;5075353;28;20525;-60
2023/02/12 04:56:39;;;;;;;22.40;20.60;;;21.10;51.50;;;;;;5075093;28;20820;-60
2023/02/12 04:59:06;;;;;;;21.33;19.70;;;21.10;51.50;;;;;;5074978;28;20530;-61
2023/02/12 05:01:34;;;;;;;21.67;20.23;;;21.10;51.50;;;;;;5074674;28;20998;-59
2023/02/12 05:04:01;;;;;;;23.17;21.30;;;21.10;51.50;;;;;;5074969;28;20458;-58
2023/02/12 05:06:30;;;;;;;22.13;20.37;;;21.10;51.90;;;;;;5075073;28;20495;-59
2023/02/12 05:08:57;;;;;;;22.10;20.30;;;21.10;51.90;;;;;;5074995;28;20451;-59
2023/02/12 05:11:24;;;;;;;23.00;21.40;;;21.10;51.40;;;;;;5074645;28;20535;-59
2023/02/12 05:13:52;;;;;;;25.17;23.00;;;21.10;52.00;;;;;;5074842;28;20529;-56
2023/02/12 05:16:19;;;;;;;22.60;20.70;;;21.10;51.30;;;;;;5075017;28;20962;-59
2023/02/12 05:18:47;;;;;;;22.60;21.00;;;21.10;51.30;;;;;;5074643;28;20443;-59
2023/02/12 05:21:14;;;;;;;21.40;19.70;;;21.10;51.30;;;;;;5074352;28;20935;-61
2023/02/12 05:23:43;;;;;;;24.47;22.80;;;21.10;51.30;;;;;;5074476;28;20443;-59
2023/02/12 05:26:15;;;;;;;24.47;22.63;;;21.10;51.30;;;;;;5114146;22;20516;-62
2023/02/12 05:28:41;;;;;;;21.97;20.37;;;21.10;51.20;;;;;;5074564;28;20450;-62
2023/02/12 05:31:11;;;;;;;25.03;23.03;;;21.10;51.20;;;;;;5075447;28;20446;-61
2023/02/12 05:33:37;;;;;;;24.37;22.53;;;21.10;51.30;;;;;;5094833;28;20537;-62
2023/02/12 05:36:06;;;;;;;24.80;22.83;;;21.10;51.40;;;;;;5094550;28;20919;-61
2023/02/12 05:38:33;;;;;;;25.63;23.53;;;21.10;51.40;;;;;;5094681;28;20885;-62
2023/02/12 05:41:05;;;;;;;23.40;21.50;;;21.10;51.30;;;;;;5094360;28;20489;-62
2023/02/12 05:43:32;;;;;;;24.47;22.53;;;21.10;51.40;;;;;;5078257;28;20793;-62
2023/02/12 05:46:00;;;;;;;25.57;23.87;;;21.10;51.30;;;;;;5074456;28;20471;-62
2023/02/12 05:48:27;;;;;;;25.00;22.40;;;21.10;51.30;;;;;;5074315;28;20512;-62
2023/02/12 05:50:53;;;;;;;25.40;23.60;;;21.10;51.30;;;;;;5074156;28;20443;-62
2023/02/12 05:53:20;;;;;;;25.53;23.33;;;21.10;51.30;;;;;;5093340;28;20452;-62
2023/02/12 05:55:47;;;;;;;25.17;23.13;;;21.10;51.20;;;;;;5094227;28;20557;-62
2023/02/12 05:58:15;;;;;;;25.33;23.23;;;21.10;51.20;;;;;;5094255;28;20529;-62
2023/02/12 06:00:42;;;;;;;24.80;23.00;;;21.10;51.20;;;;;;5094048;28;20529;-62
2023/02/12 06:03:09;;;;;;;23.40;21.43;;;21.10;51.20;;;;;;5075561;28;20443;-61
2023/02/12 06:05:36;;;;;;;25.30;23.40;;;21.10;51.20;;;;;;5073891;28;20558;-62
2023/02/12 06:08:03;;;;;;;24.60;22.40;;;21.10;51.20;;;;;;5074012;28;20439;-62
2023/02/12 06:10:29;;;;;;;24.83;22.93;;;21.00;51.10;;;;;;5073588;28;20447;-62
2023/02/12 06:12:56;;;;;;;27.97;26.10;;;21.00;51.10;;;;;;5089009;28;20442;-62
2023/02/12 06:15:24;;;;;;;25.20;23.07;;;21.00;51.10;;;;;;5093946;28;20553;-62
2023/02/12 06:17:51;;;;;;;26.13;24.23;;;21.00;51.10;;;;;;5094286;28;20537;-62
2023/02/12 06:20:18;;;;;;;24.33;22.33;;;21.00;51.10;;;;;;5093712;28;20449;-61
2023/02/12 06:22:45;;;;;;;25.10;23.20;;;21.00;51.00;;;;;;5079309;28;20489;-62
2023/02/12 06:25:12;;;;;;;24.47;22.23;;;21.00;51.00;;;;;;5073422;28;20856;-61
2023/02/12 06:27:38;;;;;;;23.33;21.43;;;21.00;50.90;;;;;;5073661;28;20443;-62
2023/02/12 06:30:06;;;;;;;25.30;23.47;;;21.00;50.90;;;;;;5073233;28;20542;-62
2023/02/12 06:32:35;;;;;;;24.60;22.50;;;21.00;50.90;;;;;;5073069;28;20466;-62
2023/02/12 06:35:01;;;;;;;26.87;24.90;;;21.00;50.90;;;;;;5073210;28;21055;-62
2023/02/12 06:37:28;;;;;;;27.77;25.87;;;21.00;50.90;;;;;;5073371;28;20447;-61
2023/02/12 06:39:55;;;;;;;23.87;21.97;;;21.00;50.90;;;;;;5076164;28;20439;-62
2023/02/12 06:42:22;;;;;;;24.07;22.27;;;21.00;50.90;;;;;;5093401;28;21077;-62
2023/02/12 06:44:49;;;;;;;23.57;21.73;;;21.00;50.90;;;;;;5093381;28;20549;-62
2023/02/12 06:47:15;;;;;;;24.50;22.50;;;21.00;51.00;;;;;;5093373;28;20541;-62
2023/02/12 06:49:43;;;;;;;24.67;22.77;;;21.00;50.90;;;;;;5091473;28;20538;-61
2023/02/12 06:52:10;;;;;;;25.70;23.87;;;21.00;50.90;;;;;;5072996;28;20831;-61
2023/02/12 06:54:38;;;;;;;26.73;24.27;;;21.00;50.80;;;;;;5073277;28;20468;-62
2023/02/12 06:57:04;;;;;;;25.90;23.83;;;20.90;50.80;;;;;;5073014;28;20451;-62
2023/02/12 06:59:31;;;;;;;25.07;23.27;;;20.90;50.80;;;;;;5086161;28;20541;-62
2023/02/12 07:01:58;;;;;;;28.53;26.03;;;20.90;50.80;;;;;;5092931;28;21020;-62
2023/02/12 07:04:25;;;;;;;26.63;24.40;;;20.90;50.80;;;;;;5093087;28;20537;-62
2023/02/12 07:06:53;;;;;;;24.90;23.00;;;20.90;51.30;;;;;;5091582;28;20892;-61
2023/02/12 07:09:20;;;;;;;25.53;23.73;;;20.90;50.80;;;;;;5092668;28;20534;-61
2023/02/12 07:11:47;;;;;;;25.83;23.80;;;20.90;50.80;;;;;;5092828;28;20473;-61
2023/02/12 07:14:15;;;;;;;24.37;22.40;;;20.90;50.80;;;;;;5092859;28;20524;-61
2023/02/12 07:16:42;;;;;;;24.37;22.50;;;20.90;50.80;;;;;;5080380;28;20990;-62
2023/02/12 07:19:11;;;;;;;25.20;23.00;;;20.90;50.80;;;;;;5072289;28;20447;-57
2023/02/12 07:21:38;;;;;;;26.27;24.07;;;20.90;50.80;;;;;;5072358;28;20483;-61
2023/02/12 07:24:10;;;;;;;25.30;22.80;;;21.00;50.90;;;;;;5072454;28;20883;-60
2023/02/12 07:26:37;;;;;;;24.77;22.57;;;21.00;50.90;;;;;;5072652;28;20450;-61
2023/02/12 07:29:05;;;;;;;28.53;26.43;;;21.00;50.90;;;;;;5085415;28;20447;-60
2023/02/12 07:31:32;;;;;;;25.67;23.40;;;21.00;50.90;;;;;;5083307;28;20442;-59
2023/02/12 07:34:00;;;;;;;26.33;24.20;;;21.00;50.90;;;;;;5072509;28;20436;-62
2023/02/12 07:36:29;;;;;;;24.37;22.33;;;21.00;50.80;;;;;;5072057;28;20603;-62
2023/02/12 07:38:57;;;;;;;24.73;22.73;;;21.00;50.90;;;;;;5072000;28;20439;-62
2023/02/12 07:41:30;;;;;;;26.40;23.90;;;20.90;50.80;;;;;;5089522;28;20529;-66
2023/02/12 07:43:59;;;;;;;24.70;22.80;;;21.00;51.20;;;;;;5092413;28;20447;-60
2023/02/12 07:46:31;;;;;;;24.30;22.03;;;21.00;51.20;;;;;;5093081;28;20494;-62
2023/02/12 07:49:03;;;;;;;24.07;22.23;;;21.10;51.20;;;;;;5092962;28;20442;-60
2023/02/12 07:51:37;;;;;;;23.10;21.40;;;21.20;51.10;;;;;;5091283;28;20477;-61
2023/02/12 07:54:10;;;;;;;25.47;23.10;;;21.20;50.90;;;;;;5092418;28;20479;-63
2023/02/12 07:56:41;;;;;;;27.30;25.00;;;21.30;50.80;;;;;;5092518;28;20439;-63
2023/02/12 07:59:15;;;;;;;26.40;24.07;;;21.30;50.70;;;;;;5092059;28;20461;-62
2023/02/12 08:01:50;;;;;;;26.77;24.37;;;21.40;50.60;;;;;;5073500;28;20479;-60
2023/02/12 08:04:20;;;;;;;26.73;24.50;;;21.40;50.50;;;;;;5071873;28;20438;-61
2023/02/12 08:06:50;;;;;;;24.87;23.03;;;21.50;50.40;;;;;;5071802;28;20451;-62
2023/02/12 08:09:19;;;;;;;25.90;24.00;;;21.50;50.30;;;;;;5071504;28;20447;-61
2023/02/12 08:11:48;;;;;;;29.17;27.07;;;21.50;50.20;;;;;;5090313;28;20445;-61
2023/02/12 08:14:17;;;;;;;29.93;27.37;;;21.50;50.10;;;;;;5092119;28;20449;-62
2023/02/12 08:16:45;;;;;;;27.83;25.73;;;21.50;50.10;;;;;;5092102;28;20446;-61
2023/02/12 08:19:13;;;;;;;28.83;26.60;;;21.50;50.00;;;;;;5092250;28;20438;-61
2023/02/12 08:21:40;;;;;;;25.07;23.17;;;21.50;49.90;;;;;;5090595;28;21202;-61
2023/02/12 08:24:07;;;;;;;25.83;23.63;;;21.50;49.90;;;;;;5092290;28;20465;-60
2023/02/12 08:26:36;;;;;;;22.40;20.80;;;21.60;51.30;;;;;;5097900;28;20957;-60
2023/02/12 08:29:06;;;;;;;23.70;22.10;;;21.70;50.60;;;;;;5098590;28;20446;-63
2023/02/12 08:31:36;;;;;;;23.17;21.67;;;21.70;50.80;;;;;;5097781;28;20775;-61
2023/02/12 08:34:04;;;;;;;23.40;21.63;;;21.70;50.80;;;;;;5078514;28;20468;-62
2023/02/12 08:36:35;;;;;;;23.77;22.07;;;21.70;50.70;;;;;;5078466;28;20487;-65
2023/02/12 08:39:02;;;;;;;23.40;21.80;;;21.80;50.70;;;;;;5078152;28;20447;-61
2023/02/12 08:41:30;;;;;;;22.57;21.07;;;21.80;50.60;;;;;;5092055;28;20438;-63
2023/02/12 08:43:59;;;;;;;20.73;19.63;;;21.80;50.50;;;;;;5098881;28;20572;-63
2023/02/12 08:46:32;;;;;;;21.50;20.13;;;21.80;50.50;;;;;;5095716;28;20471;-64
2023/02/12 08:49:01;;;;;;;21.50;20.20;;;21.80;50.50;;;;;;5085849;28;20475;-60
2023/02/12 08:51:30;;;;;;;21.90;20.60;;;21.80;50.50;;;;;;5088001;28;20811;-60
2023/02/12 08:53:59;;;;;;;21.73;20.43;;;21.80;50.40;;;;;;5080670;28;20530;-61
2023/02/12 08:56:27;;;;;;;20.43;19.23;;;21.80;50.30;;;;;;5077960;28;20463;-62
2023/02/12 08:58:54;;;;;;;21.37;20.07;;;21.80;50.20;;;;;;5097014;28;20472;-62
2023/02/12 09:01:22;;;;;;;20.87;19.33;;;21.80;50.30;;;;;;5098723;28;20525;-62
2023/02/12 09:03:51;;;;;;;22.07;20.20;;;21.80;50.70;;;;;;5098521;28;20565;-62
2023/02/12 09:06:21;;;;;;;23.93;22.03;;;21.80;51.30;;;;;;5097552;28;20478;-62
2023/02/12 09:08:48;;;;;;;23.30;21.60;;;21.80;52.10;;;;;;5094737;28;20438;-61
2023/02/12 09:11:17;;;;;;;24.30;22.17;;;21.80;53.30;;;;;;5098526;28;20452;-60
2023/02/12 09:13:45;;;;;;;26.10;23.80;;;21.80;53.40;;;;;;5098565;28;20519;-61
2023/02/12 09:16:13;;;;;;;26.73;24.20;;;21.80;54.80;;;;;;5098940;28;20825;-60
2023/02/12 09:18:40;;;;;;;24.07;21.83;;;21.70;55.50;;;;;;5098921;28;20806;-60
2023/02/12 09:21:10;;;;;;;24.17;22.37;;;21.70;56.10;;;;;;5099324;28;20442;-62
2023/02/12 09:23:38;;;;;;;24.15;21.85;;;21.70;56.20;;;;;;5077018;28;20446;-60
2023/02/12 09:26:06;;;;;;;26.03;23.60;;;21.70;57.30;;;;;;5077270;28;20683;-61
2023/02/12 09:28:33;;;;;;;24.03;22.03;;;21.70;57.40;;;;;;5089992;28;20449;-67
2023/02/12 09:31:05;;;;;;;25.13;22.97;;;21.80;59.10;;;;;;5079321;28;20445;-59
2023/02/12 09:33:32;;;;;;;25.03;20.80;;;21.80;58.50;;;;;;5077767;28;20478;-59
2023/02/12 09:36:02;;;;;;;19.30;17.30;;;21.80;58.30;;;;;;5076891;28;20509;-59
2023/02/12 09:38:31;;;;;;;19.17;17.37;;;21.70;58.00;;;;;;5071452;28;20906;-61
2023/02/12 09:41:16;;;;;;;24.07;18.23;;;21.70;57.70;;;;;;5073803;28;20784;-62
2023/02/12 09:43:51;;;;;;;19.30;17.47;;;21.60;57.10;;;;;;5074359;28;20479;-61
2023/02/12 09:46:24;;;;;;;22.30;20.10;;;21.60;56.30;;;;;;5074363;28;21026;-62
2023/02/12 09:49:00;;;;;;;20.73;18.97;;;21.50;55.60;;;;;;5073903;28;20447;-61
2023/02/12 09:51:30;;;;;;;20.57;18.43;;;21.50;55.10;;;;;;5074145;28;20502;-61
2023/02/12 09:54:03;;;;;;;21.50;19.07;;;21.40;54.70;;;;;;5074199;28;20443;-61
2023/02/12 09:56:31;;;;;;;23.47;19.40;;;21.30;54.40;;;;;;5074090;28;20972;-62
2023/02/12 09:59:01;;;;;;;20.13;18.43;;;21.30;54.00;;;;;;5073945;28;20439;-61
2023/02/12 10:01:28;;;;;;;21.30;19.30;;;21.20;53.60;;;;;;5074228;28;20436;-62
2023/02/12 10:03:56;;;;;;;22.17;20.07;;;21.20;53.50;;;;;;5074099;28;20509;-62
2023/02/12 10:06:26;;;;;;;22.10;20.13;;;21.20;53.30;;;;;;5074128;28;20496;-62
2023/02/12 10:09:24;;;;;;;22.20;20.20;;;21.10;53.10;;;;;;5073995;28;20814;-62
2023/02/12 10:11:58;;;;;;;19.87;18.07;;;21.00;52.90;;;;;;5074247;28;20443;-62
2023/02/12 10:14:58;;;;;;;19.97;18.27;;;21.00;52.80;;;;;;5073738;28;20442;-62
2023/02/12 10:17:33;;;;;;;23.30;21.00;;;21.00;52.60;;;;;;5037871;28;20459;-61
2023/02/12 10:20:22;;;;;;;20.30;18.50;;;20.90;52.50;;;;;;5073552;28;20446;-62
2023/02/12 10:22:58;;;;;;;19.83;18.13;;;20.80;52.40;;;;;;5061332;28;20566;-63
2023/02/12 10:25:35;;;;;;;19.03;17.43;;;20.80;52.40;;;;;;5073510;28;20620;-63
2023/02/12 10:28:09;;;;;;;20.70;18.63;;;20.80;52.30;;;;;;5073603;28;20447;-63
2023/02/12 10:30:42;;;;;;;22.23;19.93;;;20.80;52.30;;;;;;5073282;28;20439;-62
2023/02/12 10:33:16;;;;;;;20.73;18.80;;;20.80;52.30;;;;;;5073382;28;20527;-63
2023/02/12 10:35:46;;;;;;;21.63;19.53;;;20.70;52.10;;;;;;5073234;28;20494;-62
2023/02/12 10:38:19;;;;;;;19.87;18.17;;;20.70;52.10;;;;;;5073327;28;20453;-62
2023/02/12 10:40:49;;;;;;;22.20;20.10;;;20.60;52.00;;;;;;5073006;28;20443;-61
2023/02/12 10:43:16;;;;;;;20.33;17.47;;;20.60;52.00;;;;;;5073145;28;20931;-63
2023/02/12 10:45:43;;;;;;;19.87;17.87;;;20.60;51.90;;;;;;5073112;28;20775;-63
2023/02/12 10:48:15;;;;;;;21.97;20.07;;;20.60;51.90;;;;;;5072727;28;20871;-62
2023/02/12 10:50:52;;;;;;;19.90;17.97;;;20.60;51.80;;;;;;5072806;28;20457;-63
2023/02/12 10:53:22;;;;;;;20.17;18.23;;;20.50;51.70;;;;;;5072970;28;20527;-62
2023/02/12 10:56:04;;;;;;;20.53;18.53;;;20.50;51.80;;;;;;5072895;28;20715;-62
2023/02/12 10:58:30;;;;;;;19.93;17.47;;;20.50;51.70;;;;;;5072986;28;21016;-61
2023/02/12 11:00:59;;;;;;;22.33;19.50;;;20.50;51.60;;;;;;5072311;28;20807;-62
2023/02/12 11:03:33;;;;;;;24.60;19.10;;;20.50;51.60;;;;;;5072810;28;20486;-63
2023/02/12 11:06:12;;;;;;;20.23;18.50;;;20.40;51.40;;;;;;5072630;28;20977;-62
2023/02/12 11:08:39;;;;;;;20.73;18.97;;;20.40;51.40;;;;;;5072744;28;20449;-62
2023/02/12 11:11:11;;;;;;;23.60;21.00;;;20.40;51.40;;;;;;5072490;28;20496;-62
2023/02/12 11:13:41;;;;;;;19.50;17.87;;;20.40;51.30;;;;;;5072632;28;20522;-63
2023/02/12 11:16:09;;;;;;;21.07;19.33;;;20.40;51.30;;;;;;5072649;28;20546;-63
2023/02/12 11:18:36;;;;;;;20.30;18.47;;;20.40;51.40;;;;;;5072536;28;20452;-62
2023/02/12 11:21:05;;;;;;;20.33;18.63;;;20.40;51.30;;;;;;5072389;28;20451;-63
2023/02/12 11:23:35;;;;;;;19.10;17.57;;;20.40;51.20;;;;;;5072329;28;20478;-63
2023/02/12 11:26:04;;;;;;;16.50;15.10;;;20.30;51.10;;;;;;5072811;28;20513;-63
2023/02/12 11:28:34;;;;;;;18.00;16.57;;;20.30;51.00;;;;;;5072419;28;20442;-63
2023/02/12 11:31:03;;;;;;;17.60;16.00;;;20.30;50.90;;;;;;5072378;28;20443;-63
2023/02/12 11:33:33;;;;;;;19.80;17.90;;;20.30;50.80;;;;;;5072175;28;20435;-62
2023/02/12 11:36:04;;;;;;;17.20;15.70;;;20.30;50.80;;;;;;5072440;28;20509;-62
2023/02/12 11:38:34;;;;;;;18.07;16.73;;;20.30;50.70;;;;;;5072176;28;20538;-63
2023/02/12 11:41:07;;;;;;;18.17;16.77;;;20.30;50.70;;;;;;5071867;28;20450;-62
2023/02/12 11:43:38;;;;;;;18.33;16.47;;;20.20;50.60;;;;;;5071904;28;20489;-63
2023/02/12 11:46:07;;;;;;;16.50;15.20;;;20.30;50.70;;;;;;5071991;28;20575;-63
2023/02/12 11:48:37;;;;;;;18.27;16.57;;;20.30;50.50;;;;;;5071917;28;20479;-63
2023/02/12 11:51:08;;;;;;;18.80;17.23;;;20.20;50.40;;;;;;5071810;28;21106;-63
2023/02/12 11:53:37;;;;;;;18.80;17.07;;;20.20;50.40;;;;;;5072295;28;20439;-61
2023/02/12 11:56:06;;;;;;;17.20;15.80;;;20.20;50.40;;;;;;5072067;28;20467;-63
2023/02/12 11:58:34;;;;;;;16.40;15.20;;;20.20;50.30;;;;;;5071772;28;20456;-62
2023/02/12 12:01:06;;;;;;;16.27;14.97;;;20.20;50.20;;;;;;5070937;28;20453;-63
2023/02/12 12:03:40;;;;;;;16.87;15.50;;;20.20;50.20;;;;;;5071696;28;20509;-62
2023/02/12 12:06:15;;;;;;;17.67;16.20;;;20.10;50.10;;;;;;5071737;28;20463;-63
2023/02/12 12:08:48;;;;;;;17.90;16.50;;;20.20;50.20;;;;;;5071859;28;20447;-63
2023/02/12 12:11:19;;;;;;;16.50;15.20;;;20.10;50.00;;;;;;5071917;28;20467;-63
2023/02/12 12:13:53;;;;;;;17.67;16.30;;;20.10;50.00;;;;;;5071985;28;20443;-63
2023/02/12 12:22:36;;;;;;;17.17;15.70;;;20.10;50.00;;;;;;5049223;28;20440;-63
2023/02/12 12:25:12;;;;;;;17.90;14.33;;;20.10;50.00;;;;;;5046025;28;20488;-62
2023/02/12 12:28:08;;;;;;;17.20;15.83;;;20.00;50.00;;;;;;5063459;28;20530;-63
2023/02/12 12:30:57;;;;;;;15.90;14.60;;;20.00;50.00;;;;;;5071394;28;20443;-62
2023/02/12 12:33:33;;;;;;;17.30;15.90;;;20.00;50.00;;;;;;5071501;28;20497;-62
2023/02/12 12:36:22;;;;;;;16.20;15.03;;;20.00;49.90;;;;;;5071752;28;20847;-63
2023/02/12 12:38:59;;;;;;;17.73;16.30;;;20.00;49.90;;;;;;5071376;28;20613;-63
2023/02/12 12:41:39;;;;;;;17.77;16.47;;;20.00;49.90;;;;;;5071383;28;20458;-62
2023/02/12 12:44:19;;;;;;;16.70;15.10;;;20.00;49.90;;;;;;5071661;28;20489;-62
2023/02/12 12:47:02;;;;;;;16.67;15.30;;;20.00;50.00;;;;;;5071395;28;20940;-62
2023/02/12 12:49:46;;;;;;;16.17;14.97;;;20.00;49.90;;;;;;5071495;28;20444;-63
2023/02/12 12:52:41;;;;;;;15.53;14.40;;;19.90;49.80;;;;;;5071296;28;20439;-62
2023/02/12 12:55:22;;;;;;;17.53;16.13;;;19.90;49.80;;;;;;5044518;28;20471;-63